sensor_id;sensor_type;location;lat;lon;timestamp;temperature;humidity
18268;DHT22;9260;49.998;19.880;2023-07-22T00:02:50;15.10;99.90
18268;DHT22;9260;49.998;19.880;2023-07-22T00:12:54;15.10;99.90
18268;DHT22;9260;49.998;19.880;2023-07-22T00:22:59;15.10;99.90
18268;DHT22;9260;49.998;19.880;2023-07-22T00:43:09;14.80;99.90
18268;DHT22;9260;49.998;19.880;2023-07-22T00:53:13;14.90;99.90
18268;DHT22;9260;49.998;19.880;2023-07-22T01:03:17;14.70;99.90
18268;DHT22;9260;49.998;19.880;2023-07-22T01:13:21;14.50;99.90
18268;DHT22;9260;49.998;19.880;2023-07-22T01:33:30;13.80;99.90
18268;DHT22;9260;49.998;19.880;2023-07-22T01:43:35;13.40;99.90
18268;DHT22;9260;49.998;19.880;2023-07-22T01:53:39;13.50;99.90
18268;DHT22;9260;49.998;19.880;2023-07-22T02:03:44;13.60;99.90
18268;DHT22;9260;49.998;19.880;2023-07-22T02:13:48;13.30;99.90
18268;DHT22;9260;49.998;19.880;2023-07-22T02:23:53;13.70;99.90
18268;DHT22;9260;49.998;19.880;2023-07-22T02:33:57;13.70;99.90
18268;DHT22;9260;49.998;19.880;2023-07-22T03:14:19;13.90;99.90
18268;DHT22;9260;49.998;19.880;2023-07-22T03:44:35;14.20;99.90
18268;DHT22;9260;49.998;19.880;2023-07-22T04:04:44;14.60;99.90
18268;DHT22;9260;49.998;19.880;2023-07-22T04:14:48;14.90;99.90
18268;DHT22;9260;49.998;19.880;2023-07-22T04:34:56;15.40;99.90
18268;DHT22;9260;49.998;19.880;2023-07-22T04:45:01;15.40;99.90
18268;DHT22;9260;49.998;19.880;2023-07-22T05:05:13;16.60;99.90
18268;DHT22;9260;49.998;19.880;2023-07-22T05:25:21;17.40;99.90
18268;DHT22;9260;49.998;19.880;2023-07-22T05:35:25;17.20;99.90
18268;DHT22;9260;49.998;19.880;2023-07-22T05:45:30;16.80;99.90
18268;DHT22;9260;49.998;19.880;2023-07-22T06:15:43;17.40;99.90
18268;DHT22;9260;49.998;19.880;2023-07-22T06:25:48;17.70;99.90
18268;DHT22;9260;49.998;19.880;2023-07-22T06:56:02;21.10;99.90
18268;DHT22;9260;49.998;19.880;2023-07-22T07:06:06;20.90;99.90
18268;DHT22;9260;49.998;19.880;2023-07-22T07:16:19;22.20;99.90
18268;DHT22;9260;49.998;19.880;2023-07-22T07:26:25;22.50;99.90
18268;DHT22;9260;49.998;19.880;2023-07-22T07:36:28;22.60;99.90
18268;DHT22;9260;49.998;19.880;2023-07-22T07:56:37;25.00;99.90
18268;DHT22;9260;49.998;19.880;2023-07-22T08:16:46;28.30;99.90
18268;DHT22;9260;49.998;19.880;2023-07-22T08:26:51;32.90;99.90
18268;DHT22;9260;49.998;19.880;2023-07-22T08:57:05;39.40;65.90
18268;DHT22;9260;49.998;19.880;2023-07-22T09:07:12;36.60;68.40
18268;DHT22;9260;49.998;19.880;2023-07-22T09:17:17;41.30;30.00
18268;DHT22;9260;49.998;19.880;2023-07-22T09:37:40;42.70;1.00
18268;DHT22;9260;49.998;19.880;2023-07-22T09:47:46;42.70;1.00
18268;DHT22;9260;49.998;19.880;2023-07-22T09:57:52;43.90;1.00
18268;DHT22;9260;49.998;19.880;2023-07-22T10:07:58;46.60;1.00
18268;DHT22;9260;49.998;19.880;2023-07-22T10:18:02;49.40;1.00
18268;DHT22;9260;49.998;19.880;2023-07-22T10:38:12;49.30;1.00
18268;DHT22;9260;49.998;19.880;2023-07-22T10:48:18;50.70;1.00
18268;DHT22;9260;49.998;19.880;2023-07-22T10:58:22;52.50;1.00
18268;DHT22;9260;49.998;19.880;2023-07-22T11:08:37;51.30;1.00
18268;DHT22;9260;49.998;19.880;2023-07-22T11:18:42;46.50;1.00
18268;DHT22;9260;49.998;19.880;2023-07-22T11:28:47;40.90;1.00
18268;DHT22;9260;49.998;19.880;2023-07-22T11:38:51;43.80;2.70
18268;DHT22;9260;49.998;19.880;2023-07-22T12:09:06;31.70;99.90
18268;DHT22;9260;49.998;19.880;2023-07-22T12:19:11;34.30;99.90
18268;DHT22;9260;49.998;19.880;2023-07-22T12:29:16;36.50;99.90
18268;DHT22;9260;49.998;19.880;2023-07-22T12:39:22;36.60;99.90
18268;DHT22;9260;49.998;19.880;2023-07-22T12:49:27;34.10;99.90
18268;DHT22;9260;49.998;19.880;2023-07-22T12:59:30;31.10;99.90
18268;DHT22;9260;49.998;19.880;2023-07-22T13:09:37;29.30;99.90
18268;DHT22;9260;49.998;19.880;2023-07-22T13:29:50;27.50;99.90
18268;DHT22;9260;49.998;19.880;2023-07-22T13:49:58;26.50;99.90
18268;DHT22;9260;49.998;19.880;2023-07-22T14:00:02;26.60;99.90
18268;DHT22;9260;49.998;19.880;2023-07-22T14:10:14;26.30;99.90
18268;DHT22;9260;49.998;19.880;2023-07-22T14:20:17;25.40;99.90
18268;DHT22;9260;49.998;19.880;2023-07-22T14:30:22;24.70;99.90
18268;DHT22;9260;49.998;19.880;2023-07-22T14:40:26;24.80;99.90
18268;DHT22;9260;49.998;19.880;2023-07-22T14:50:31;25.10;99.90
18268;DHT22;9260;49.998;19.880;2023-07-22T15:00:35;25.10;99.90
18268;DHT22;9260;49.998;19.880;2023-07-22T15:10:40;23.60;99.90
18268;DHT22;9260;49.998;19.880;2023-07-22T15:20:43;22.20;99.90
18268;DHT22;9260;49.998;19.880;2023-07-22T15:30:48;21.70;99.90
18268;DHT22;9260;49.998;19.880;2023-07-22T15:40:51;22.80;99.90
18268;DHT22;9260;49.998;19.880;2023-07-22T15:50:57;22.60;99.90
18268;DHT22;9260;49.998;19.880;2023-07-22T16:01:00;21.10;99.90
18268;DHT22;9260;49.998;19.880;2023-07-22T16:11:05;21.50;99.90
18268;DHT22;9260;49.998;19.880;2023-07-22T16:41:19;20.60;99.90
18268;DHT22;9260;49.998;19.880;2023-07-22T16:51:26;20.40;99.90
18268;DHT22;9260;49.998;19.880;2023-07-22T17:01:32;20.20;99.90
18268;DHT22;9260;49.998;19.880;2023-07-22T17:11:37;19.80;99.90
18268;DHT22;9260;49.998;19.880;2023-07-22T18:12:06;17.80;99.90
18268;DHT22;9260;49.998;19.880;2023-07-22T18:32:19;17.50;99.90
18268;DHT22;9260;49.998;19.880;2023-07-22T19:12:36;16.80;99.90
18268;DHT22;9260;49.998;19.880;2023-07-22T19:22:39;16.20;99.90
18268;DHT22;9260;49.998;19.880;2023-07-22T19:32:44;15.30;99.90
18268;DHT22;9260;49.998;19.880;2023-07-22T19:42:48;14.30;99.90
18268;DHT22;9260;49.998;19.880;2023-07-22T19:52:53;14.10;99.90
18268;DHT22;9260;49.998;19.880;2023-07-22T20:02:56;13.90;99.90
18268;DHT22;9260;49.998;19.880;2023-07-22T20:13:01;13.40;99.90
18268;DHT22;9260;49.998;19.880;2023-07-22T20:33:10;12.80;99.90
18268;DHT22;9260;49.998;19.880;2023-07-22T20:43:14;12.50;99.90
18268;DHT22;9260;49.998;19.880;2023-07-22T20:53:19;12.50;99.90
18268;DHT22;9260;49.998;19.880;2023-07-22T21:13:28;12.00;99.90
18268;DHT22;9260;49.998;19.880;2023-07-22T21:23:31;11.70;99.90
18268;DHT22;9260;49.998;19.880;2023-07-22T21:33:36;11.50;99.90
18268;DHT22;9260;49.998;19.880;2023-07-22T21:53:45;10.90;99.90
18268;DHT22;9260;49.998;19.880;2023-07-22T22:03:48;10.60;99.90
18268;DHT22;9260;49.998;19.880;2023-07-22T22:34:02;9.90;99.90
18268;DHT22;9260;49.998;19.880;2023-07-22T22:44:06;9.90;99.90
18268;DHT22;9260;49.998;19.880;2023-07-22T22:54:11;10.00;99.90
18268;DHT22;9260;49.998;19.880;2023-07-22T23:14:20;9.80;99.90
18268;DHT22;9260;49.998;19.880;2023-07-22T23:24:24;9.20;99.90
18268;DHT22;9260;49.998;19.880;2023-07-22T23:34:29;9.20;99.90
18268;DHT22;9260;49.998;19.880;2023-07-22T23:44:32;9.10;99.90
